Time;durP1;ratioP1;P1;durP2;ratioP2;P2;SDS_P1;SDS_P2;PMS_P1;PMS_P2;Temp;Humidity;BMP_temperature;BMP_pressure;BME280_temperature;BME280_humidity;BME280_pressure;Samples;Min_cycle;Max_cycle;Signal;HPM_P1;HPM_P2
2021/10/18 00:00:17;;;;;;;23.40;15.63;;;;;;;10.45;82.80;102211.53;5063314;28;20185;-70
2021/10/18 00:02:42;;;;;;;21.27;14.47;;;;;;;10.46;81.27;102221.00;5065748;28;20674;-70
2021/10/18 00:05:13;;;;;;;19.37;14.20;;;;;;;10.48;80.59;102221.91;5059628;28;20201;-70
2021/10/18 00:07:38;;;;;;;19.30;14.73;;;;;;;10.49;81.44;102227.13;5069511;28;20217;-70
2021/10/18 00:10:06;;;;;;;17.60;13.90;;;;;;;10.50;81.59;102222.88;5064569;28;20200;-70
2021/10/18 00:12:32;;;;;;;20.20;13.20;;;;;;;10.52;79.70;102216.13;5069477;28;20198;-70
2021/10/18 00:14:58;;;;;;;18.70;14.70;;;;;;;10.54;80.94;102217.94;5065624;28;20195;-70
2021/10/18 00:17:24;;;;;;;18.57;13.63;;;;;;;10.55;80.68;102223.94;5064334;28;20291;-70
2021/10/18 00:19:49;;;;;;;18.90;13.90;;;;;;;10.57;81.04;102217.19;5063226;28;20209;-70
2021/10/18 00:22:15;;;;;;;17.93;13.27;;;;;;;10.58;81.57;102221.50;5059824;28;20714;-70
2021/10/18 00:24:41;;;;;;;20.90;14.37;;;;;;;10.55;82.03;102222.25;5069686;28;20600;-70
2021/10/18 00:27:06;;;;;;;17.87;13.00;;;;;;;10.56;82.13;102220.56;5068154;28;20201;-70
2021/10/18 00:29:31;;;;;;;18.73;14.27;;;;;;;10.54;81.96;102224.72;5063169;28;20725;-70
2021/10/18 00:31:56;;;;;;;20.93;14.00;;;;;;;10.53;82.32;102221.31;5069370;28;20220;-70
2021/10/18 00:34:22;;;;;;;20.63;14.03;;;;;;;10.51;81.83;102217.78;5063895;28;20223;-70
2021/10/18 00:36:47;;;;;;;18.70;13.00;;;;;;;10.54;79.38;102224.72;5066356;28;20224;-70
2021/10/18 00:39:12;;;;;;;20.87;13.37;;;;;;;10.57;78.53;102222.31;5062834;28;20198;-70
2021/10/18 00:41:38;;;;;;;17.73;13.43;;;;;;;10.54;78.68;102223.06;5069114;28;20180;-70
2021/10/18 00:44:03;;;;;;;16.87;12.70;;;;;;;10.55;78.30;102222.25;5063639;28;20719;-69
2021/10/18 00:46:30;;;;;;;17.73;12.57;;;;;;;10.52;78.53;102222.13;5068958;28;20185;-70
2021/10/18 00:48:56;;;;;;;18.63;12.43;;;;;;;10.55;77.67;102235.03;5064906;28;20207;-70
2021/10/18 00:51:23;;;;;;;18.27;11.73;;;;;;;10.64;76.32;102235.41;5059661;28;20186;-70
2021/10/18 00:53:49;;;;;;;17.03;11.40;;;;;;;10.64;76.71;102237.13;5061168;28;20205;-70
2021/10/18 00:56:15;;;;;;;18.37;12.80;;;;;;;10.62;77.06;102231.94;5059995;28;20657;-70
2021/10/18 00:58:41;;;;;;;21.43;12.03;;;;;;;10.62;76.85;102241.28;5069038;28;20200;-70
2021/10/18 01:01:08;;;;;;;15.43;11.77;;;;;;;10.62;77.09;102236.16;5069323;28;20196;-70
2021/10/18 01:03:35;;;;;;;16.60;12.37;;;;;;;10.61;77.54;102235.31;5066820;28;20195;-70
2021/10/18 01:06:00;;;;;;;19.00;12.43;;;;;;;10.62;77.51;102233.63;5068872;28;20228;-70
2021/10/18 01:08:26;;;;;;;18.63;12.60;;;;;;;10.62;77.14;102242.19;5069197;28;20673;-69
2021/10/18 01:10:51;;;;;;;17.20;11.50;;;;;;;10.64;76.34;102239.69;5067069;28;20185;-70
2021/10/18 01:13:16;;;;;;;18.53;12.50;;;;;;;10.66;76.44;102233.81;5068944;28;20292;-70
2021/10/18 01:15:42;;;;;;;18.60;12.33;;;;;;;10.65;76.86;102234.59;5065726;28;20327;-70
2021/10/18 01:18:07;;;;;;;17.43;10.90;;;;;;;10.71;75.74;102231.44;5064053;28;20236;-70
2021/10/18 01:20:35;;;;;;;16.33;11.23;;;;;;;10.69;75.72;102226.25;5067720;28;20201;-70
2021/10/18 01:23:00;;;;;;;17.80;11.63;;;;;;;10.68;76.19;102229.63;5067586;28;20666;-70
2021/10/18 01:25:27;;;;;;;15.63;11.50;;;;;;;10.70;76.07;102227.13;5067611;28;20185;-70
2021/10/18 01:27:54;;;;;;;18.60;12.53;;;;;;;10.70;76.07;102227.13;5068746;28;20213;-70
2021/10/18 01:30:19;;;;;;;14.90;11.03;;;;;;;10.68;76.54;102216.81;5063440;28;20273;-70
2021/10/18 01:32:44;;;;;;;15.23;11.93;;;;;;;10.71;75.93;102227.19;5065857;28;20304;-70
2021/10/18 01:35:10;;;;;;;17.13;11.23;;;;;;;10.73;75.89;102229.81;5066730;28;20222;-70
2021/10/18 01:37:36;;;;;;;17.30;11.77;;;;;;;10.70;76.22;102237.38;5068359;28;20209;-70
2021/10/18 01:40:11;;;;;;;18.70;12.00;;;;;;;10.71;77.13;102241.69;5063725;28;20190;-70
2021/10/18 01:42:37;;;;;;;18.40;11.47;;;;;;;10.72;75.97;102240.84;5068409;28;20185;-70
2021/10/18 01:45:07;;;;;;;16.77;12.40;;;;;;;10.71;76.52;102240.00;5065339;28;20190;-70
2021/10/18 01:47:33;;;;;;;18.30;12.43;;;;;;;10.72;75.69;102241.75;5065362;28;20233;-70
2021/10/18 01:49:59;;;;;;;17.97;12.90;;;;;;;10.73;76.87;102242.63;5066285;28;20614;-70
2021/10/18 01:52:24;;;;;;;18.43;12.43;;;;;;;10.70;76.74;102245.91;5066785;28;20208;-70
2021/10/18 01:54:50;;;;;;;16.63;11.93;;;;;;;10.71;76.09;102236.56;5066802;28;20198;-70
2021/10/18 01:57:16;;;;;;;16.53;11.70;;;;;;;10.71;76.04;102234.88;5070783;28;20628;-70
2021/10/18 01:59:41;;;;;;;19.83;12.17;;;;;;;10.71;75.84;102229.75;5067328;28;20189;-70
2021/10/18 02:02:07;;;;;;;20.87;12.30;;;;;;;10.73;76.09;102232.38;5068327;28;20228;-70
2021/10/18 02:04:32;;;;;;;17.97;12.00;;;;;;;10.74;75.39;102223.88;5070941;28;20657;-70
2021/10/18 02:06:58;;;;;;;19.43;11.87;;;;;;;10.73;75.33;102217.88;5071677;28;20213;-70
2021/10/18 02:09:23;;;;;;;19.10;12.17;;;;;;;10.76;75.29;102225.69;5066419;28;20239;-70
2021/10/18 02:11:49;;;;;;;17.17;11.57;;;;;;;10.77;75.12;102224.88;5071708;28;20193;-70
2021/10/18 02:14:14;;;;;;;19.87;12.47;;;;;;;10.75;75.50;102221.38;5062636;28;20218;-70
2021/10/18 02:16:40;;;;;;;19.17;12.20;;;;;;;10.75;75.28;102223.06;5071477;28;20741;-70
2021/10/18 02:19:05;;;;;;;19.83;12.60;;;;;;;10.76;74.83;102220.56;5070340;28;20682;-70
2021/10/18 02:21:30;;;;;;;21.03;13.20;;;;;;;10.77;75.25;102216.28;5071747;28;20193;-70
2021/10/18 02:23:55;;;;;;;19.10;12.37;;;;;;;10.76;75.26;102204.31;5067989;28;20542;-70
2021/10/18 02:26:21;;;;;;;18.10;12.30;;;;;;;10.78;75.26;102215.50;5068171;28;20658;-70
2021/10/18 02:28:46;;;;;;;19.83;12.40;;;;;;;10.74;75.03;102204.25;5070622;28;20558;-70
2021/10/18 02:31:12;;;;;;;20.00;13.30;;;;;;;10.76;75.13;102214.56;5070184;28;20568;-70
2021/10/18 02:33:37;;;;;;;17.07;12.63;;;;;;;10.72;74.58;102211.00;5069361;28;20716;-70
2021/10/18 02:36:02;;;;;;;17.77;13.03;;;;;;;10.72;74.67;102202.44;5071227;28;20224;-70
2021/10/18 02:38:28;;;;;;;21.33;11.90;;;;;;;10.66;74.88;102190.28;5071172;28;20275;-70
2021/10/18 02:40:53;;;;;;;18.13;12.13;;;;;;;10.64;74.77;102196.16;5069551;28;20192;-70
2021/10/18 02:43:19;;;;;;;16.70;13.10;;;;;;;10.59;75.15;102201.06;5070308;28;20193;-70
2021/10/18 02:45:44;;;;;;;18.60;12.63;;;;;;;10.50;74.94;102200.69;5070385;28;20193;-70
2021/10/18 02:48:12;;;;;;;19.27;13.23;;;;;;;10.48;74.74;102199.75;5071301;28;20212;-70
2021/10/18 02:50:38;;;;;;;15.83;11.57;;;;;;;10.45;74.92;102191.94;5066145;28;20272;-70
2021/10/18 02:53:03;;;;;;;18.10;12.07;;;;;;;10.39;75.04;102195.94;5067762;28;20354;-70
2021/10/18 02:55:28;;;;;;;16.50;11.57;;;;;;;10.34;75.47;102193.19;5061040;28;20189;-70
2021/10/18 02:57:56;;;;;;;15.63;11.30;;;;;;;10.32;75.55;102205.03;5068594;28;20209;-70
2021/10/18 03:00:21;;;;;;;21.87;11.43;;;;;;;10.30;75.17;102204.13;5071004;28;20189;-70
2021/10/18 03:02:50;;;;;;;16.97;12.20;;;;;;;10.30;75.42;102206.66;5071118;28;20188;-69
2021/10/18 03:05:15;;;;;;;16.83;11.40;;;;;;;10.30;75.08;102205.78;5067726;28;20578;-70
2021/10/18 03:07:41;;;;;;;15.90;11.43;;;;;;;10.32;75.19;102204.19;5070430;28;20673;-70
2021/10/18 03:10:07;;;;;;;15.23;11.57;;;;;;;10.29;75.53;102201.47;5064766;28;20197;-70
2021/10/18 03:12:34;;;;;;;20.00;12.00;;;;;;;10.26;75.13;102204.78;5069578;28;20355;-70
2021/10/18 03:14:59;;;;;;;15.93;10.40;;;;;;;10.26;75.71;102212.47;5065313;28;20197;-70
2021/10/18 03:17:25;;;;;;;15.23;11.03;;;;;;;10.32;74.70;102207.59;5069008;28;20580;-70
2021/10/18 03:19:51;;;;;;;18.03;11.63;;;;;;;10.30;75.26;102203.22;5065288;28;20264;-70
2021/10/18 03:22:16;;;;;;;15.43;10.93;;;;;;;10.30;75.05;102209.22;5069276;28;20276;-70
2021/10/18 03:24:41;;;;;;;15.90;11.00;;;;;;;10.29;74.97;102207.50;5068726;28;20213;-70
2021/10/18 03:27:07;;;;;;;14.60;11.03;;;;;;;10.28;75.22;102207.41;5064200;28;20699;-70
2021/10/18 03:29:32;;;;;;;14.50;10.97;;;;;;;10.28;75.02;102215.09;5064731;28;20225;-70
2021/10/18 03:31:57;;;;;;;17.40;11.47;;;;;;;10.29;74.92;102217.72;5066479;28;20232;-70
2021/10/18 03:34:23;;;;;;;13.90;10.90;;;;;;;10.31;75.32;102215.22;5062634;28;20355;-69
2021/10/18 03:36:48;;;;;;;15.97;11.43;;;;;;;10.34;74.94;102213.69;5063162;28;20209;-70
2021/10/18 03:39:13;;;;;;;14.10;10.73;;;;;;;10.33;75.33;102218.72;5069385;28;20191;-70
2021/10/18 03:41:39;;;;;;;16.70;11.17;;;;;;;10.34;75.11;102221.34;5067267;28;20189;-70
2021/10/18 03:44:04;;;;;;;15.63;11.10;;;;;;;10.31;75.74;102220.31;5060111;28;20312;-70
2021/10/18 03:46:29;;;;;;;16.17;11.40;;;;;;;10.27;76.45;102223.59;5069558;28;20185;-70
2021/10/18 03:48:55;;;;;;;15.90;10.83;;;;;;;10.32;75.24;102233.19;5069355;28;20247;-70
2021/10/18 03:51:21;;;;;;;16.40;11.20;;;;;;;10.36;75.32;102231.63;5064048;28;20190;-70
2021/10/18 03:53:46;;;;;;;14.33;9.90;;;;;;;10.39;75.74;102234.34;5065658;28;20198;-70
2021/10/18 03:56:11;;;;;;;18.83;10.43;;;;;;;10.42;75.16;102235.34;5066910;28;20308;-70
2021/10/18 03:58:37;;;;;;;14.37;11.60;;;;;;;10.43;75.26;102239.66;5069124;28;20756;-69
2021/10/18 04:01:07;;;;;;;17.07;10.90;;;;;;;10.51;74.51;102238.28;5068453;28;20225;-69
2021/10/18 04:03:32;;;;;;;15.00;10.93;;;;;;;10.48;74.77;102227.03;5067275;28;20197;-70
2021/10/18 04:05:58;;;;;;;12.93;10.90;;;;;;;10.47;74.93;102236.41;5065149;28;20193;-70
2021/10/18 04:08:24;;;;;;;16.13;10.80;;;;;;;10.45;74.91;102247.38;5063714;28;20209;-70
2021/10/18 04:10:50;;;;;;;13.13;10.67;;;;;;;10.39;75.48;102242.03;5070094;28;20522;-70
2021/10/18 04:13:15;;;;;;;18.13;11.43;;;;;;;10.37;75.73;102241.94;5067135;28;20209;-70
2021/10/18 04:15:40;;;;;;;16.77;10.90;;;;;;;10.42;74.93;102240.44;5068144;28;20280;-70
2021/10/18 04:18:05;;;;;;;14.10;11.03;;;;;;;10.51;74.26;102242.53;5069431;28;20247;-70
2021/10/18 04:20:31;;;;;;;15.57;10.43;;;;;;;10.50;74.40;102246.78;5066417;28;20197;-69
2021/10/18 04:22:56;;;;;;;15.03;10.47;;;;;;;10.49;74.34;102249.28;5065921;28;20181;-70
2021/10/18 04:25:22;;;;;;;12.37;10.20;;;;;;;10.51;73.98;102247.66;5063968;28;20193;-70
2021/10/18 04:27:47;;;;;;;15.50;10.10;;;;;;;10.53;74.48;102249.47;5058772;28;20289;-70
2021/10/18 04:30:13;;;;;;;17.57;10.40;;;;;;;10.51;74.29;102247.66;5067410;28;20565;-70
2021/10/18 04:32:38;;;;;;;13.57;10.00;;;;;;;10.51;74.35;102245.09;5049327;28;20281;-70
2021/10/18 04:35:04;;;;;;;12.90;10.10;;;;;;;10.52;74.12;102242.63;5054144;28;20192;-70
2021/10/18 04:37:29;;;;;;;15.03;10.23;;;;;;;10.50;74.54;102248.50;5066135;28;20224;-70
2021/10/18 04:39:55;;;;;;;13.60;10.80;;;;;;;10.48;74.64;102248.41;5061452;28;20201;-70
2021/10/18 04:42:20;;;;;;;13.83;10.53;;;;;;;10.49;74.28;102250.16;5068211;28;20189;-70
2021/10/18 04:44:46;;;;;;;15.27;10.87;;;;;;;10.48;74.29;102240.75;5062763;28;20188;-70
2021/10/18 04:47:11;;;;;;;14.80;10.40;;;;;;;10.46;75.39;102244.91;5066188;28;20212;-70
2021/10/18 04:49:38;;;;;;;14.73;10.43;;;;;;;10.37;75.82;102239.38;5067891;28;20193;-69
2021/10/18 04:52:03;;;;;;;14.63;9.50;;;;;;;10.32;76.71;102240.03;5066473;28;20705;-70
2021/10/18 04:54:28;;;;;;;16.53;9.90;;;;;;;10.31;75.17;102244.25;5068384;28;20209;-70
2021/10/18 04:56:54;;;;;;;20.20;9.67;;;;;;;10.31;74.93;102251.94;5069064;28;20219;-70
2021/10/18 04:59:19;;;;;;;15.17;10.23;;;;;;;10.28;74.97;102240.69;5068072;28;20289;-70
2021/10/18 05:01:44;;;;;;;15.23;9.70;;;;;;;10.28;74.77;102249.22;5069172;28;20272;-69
2021/10/18 05:04:09;;;;;;;13.60;9.47;;;;;;;10.25;74.60;102258.47;5063398;28;20291;-70
2021/10/18 05:06:35;;;;;;;14.80;10.17;;;;;;;10.19;75.01;102258.22;5068880;28;20284;-69
2021/10/18 05:09:00;;;;;;;13.77;9.40;;;;;;;10.19;74.86;102255.66;5063634;28;20284;-70
2021/10/18 05:11:25;;;;;;;13.53;8.97;;;;;;;10.17;74.77;102258.16;5067910;28;20862;-71
2021/10/18 05:13:51;;;;;;;12.07;8.77;;;;;;;10.21;74.38;102259.16;5067818;28;20212;-69
2021/10/18 05:16:16;;;;;;;14.53;9.67;;;;;;;10.21;74.15;102267.72;5068688;28;20193;-69
2021/10/18 05:18:42;;;;;;;14.03;9.50;;;;;;;10.25;74.05;102268.72;5066396;28;20267;-69
2021/10/18 05:21:07;;;;;;;15.80;9.43;;;;;;;10.24;74.11;102275.53;5040175;28;20222;-69
2021/10/18 05:23:33;;;;;;;11.33;8.67;;;;;;;10.24;73.96;102275.53;5059955;28;20251;-69
2021/10/18 05:25:59;;;;;;;14.23;9.07;;;;;;;10.26;74.11;102268.78;5063717;28;20190;-69
2021/10/18 05:28:24;;;;;;;11.23;8.80;;;;;;;10.35;72.68;102263.19;5060711;28;20611;-68
2021/10/18 05:30:49;;;;;;;12.73;8.70;;;;;;;10.35;73.05;102263.19;5057103;28;20197;-68
2021/10/18 05:33:15;;;;;;;12.73;8.40;;;;;;;10.33;72.90;102265.66;5066420;28;20252;-70
2021/10/18 05:35:40;;;;;;;11.40;8.70;;;;;;;10.34;72.86;102281.91;5069740;28;20220;-69
2021/10/18 05:38:06;;;;;;;10.97;8.47;;;;;;;10.36;72.93;102285.41;5072377;28;20716;-69
2021/10/18 05:40:31;;;;;;;13.40;8.67;;;;;;;10.37;72.70;102277.78;5070662;28;20663;-69
2021/10/18 05:42:56;;;;;;;12.90;9.97;;;;;;;10.41;72.56;102283.94;5072425;28;20662;-69
2021/10/18 05:45:22;;;;;;;13.77;9.30;;;;;;;10.41;72.94;102286.50;5071508;28;20196;-69
2021/10/18 05:47:51;;;;;;;12.77;8.97;;;;;;;10.38;73.15;102282.13;5072180;28;20619;-69
2021/10/18 05:50:18;;;;;;;15.37;9.60;;;;;;;10.38;72.69;102278.69;5067075;28;20201;-69
2021/10/18 05:52:43;;;;;;;14.60;8.97;;;;;;;10.42;72.50;102289.09;5068524;28;20205;-68
2021/10/18 05:55:08;;;;;;;15.30;9.60;;;;;;;10.46;72.06;102285.88;5071244;28;20680;-69
2021/10/18 05:57:54;;;;;;;13.83;9.40;;;;;;;10.46;72.06;102296.13;5067525;28;20926;-69
2021/10/18 06:00:21;;;;;;;16.30;9.87;;;;;;;10.50;71.74;102290.31;5070822;28;20185;-69
2021/10/18 06:02:48;;;;;;;12.83;9.37;;;;;;;10.51;72.20;102292.06;5068832;28;20181;-69
2021/10/18 06:05:13;;;;;;;15.37;9.10;;;;;;;10.54;71.80;102294.75;5071039;28;20196;-69
2021/10/18 06:07:39;;;;;;;13.27;10.00;;;;;;;10.58;71.37;102283.84;5065099;28;20685;-69
2021/10/18 06:10:05;;;;;;;11.27;9.60;;;;;;;10.60;71.19;102282.22;5066787;28;20211;-69
2021/10/18 06:12:31;;;;;;;12.97;9.87;;;;;;;10.61;71.55;102284.00;5070448;28;20232;-69
2021/10/18 06:14:56;;;;;;;15.43;9.97;;;;;;;10.64;71.50;102289.22;5070470;28;20666;-69
2021/10/18 06:17:21;;;;;;;14.40;9.70;;;;;;;10.64;71.86;102283.25;5071595;28;20694;-69
2021/10/18 06:19:47;;;;;;;15.37;9.20;;;;;;;10.63;71.79;102290.03;5066573;28;20189;-69
2021/10/18 06:22:12;;;;;;;18.37;11.30;;;;;;;10.61;72.37;102291.66;5071876;28;20189;-69
2021/10/18 06:24:37;;;;;;;14.40;9.93;;;;;;;10.63;72.22;102291.72;5065322;28;20281;-69
2021/10/18 06:27:03;;;;;;;14.07;9.53;;;;;;;10.65;72.30;102296.09;5071686;28;20232;-68
2021/10/18 06:29:29;;;;;;;13.07;9.13;;;;;;;10.66;72.32;102296.97;5069476;28;20212;-69
2021/10/18 06:31:54;;;;;;;13.20;9.20;;;;;;;10.69;72.49;102300.53;5071507;28;20284;-68
2021/10/18 06:34:20;;;;;;;13.67;10.00;;;;;;;10.68;72.32;102303.03;5064702;28;20674;-68
2021/10/18 06:36:45;;;;;;;14.83;9.83;;;;;;;10.71;72.47;102301.50;5071171;28;20197;-68
2021/10/18 06:39:10;;;;;;;12.03;8.87;;;;;;;10.73;72.69;102310.09;5070781;28;20255;-69
2021/10/18 06:41:35;;;;;;;13.77;8.93;;;;;;;10.82;71.23;102315.59;5070819;28;20223;-69
2021/10/18 06:44:01;;;;;;;12.87;8.90;;;;;;;10.86;71.46;102316.59;5064916;28;20224;-69
2021/10/18 06:46:26;;;;;;;11.57;8.50;;;;;;;10.91;71.14;102320.22;5070869;28;20257;-69
2021/10/18 06:48:51;;;;;;;13.80;8.47;;;;;;;10.95;70.58;102320.44;5068013;28;20590;-69
2021/10/18 06:51:17;;;;;;;11.23;8.43;;;;;;;11.00;70.46;102320.63;5066935;28;20567;-69
2021/10/18 06:53:42;;;;;;;11.40;8.37;;;;;;;11.06;70.18;102326.88;5067321;28;20221;-69
2021/10/18 06:56:07;;;;;;;13.67;8.80;;;;;;;11.11;70.35;102327.94;5066711;28;20197;-68
2021/10/18 06:58:33;;;;;;;10.87;7.70;;;;;;;11.15;69.87;102332.38;5070125;28;20213;-69
2021/10/18 07:01:00;;;;;;;11.93;9.07;;;;;;;11.22;69.55;102329.25;5070898;28;20228;-68
2021/10/18 07:03:25;;;;;;;10.63;8.60;;;;;;;11.26;69.08;102326.00;5069782;28;20861;-68
2021/10/18 07:05:50;;;;;;;13.70;8.87;;;;;;;11.32;69.06;102335.63;5068256;28;20190;-68
2021/10/18 07:08:16;;;;;;;12.73;8.33;;;;;;;11.33;69.51;102340.81;5070897;28;20702;-69
2021/10/18 07:10:42;;;;;;;12.17;8.97;;;;;;;11.37;69.21;102341.81;5069953;28;20193;-68
2021/10/18 07:13:09;;;;;;;11.60;8.07;;;;;;;11.43;68.92;102335.22;5070942;28;20213;-69
2021/10/18 07:15:38;;;;;;;10.27;7.90;;;;;;;11.49;68.37;102335.50;5066692;28;20189;-69
2021/10/18 07:18:06;;;;;;;11.20;8.10;;;;;;;11.58;68.70;102332.41;5070834;28;20241;-68
2021/10/18 07:20:31;;;;;;;11.97;8.97;;;;;;;11.64;68.34;102330.09;5070120;28;20200;-69
2021/10/18 07:22:59;;;;;;;11.97;8.17;;;;;;;11.69;68.79;102336.28;5061155;28;20185;-69
2021/10/18 07:25:25;;;;;;;12.20;8.60;;;;;;;11.74;67.21;102329.63;5070375;28;20185;-69
2021/10/18 07:27:50;;;;;;;12.07;8.13;;;;;;;11.77;66.74;102333.22;5066013;28;20696;-68
2021/10/18 07:30:16;;;;;;;13.60;8.43;;;;;;;11.79;67.31;102328.13;5069657;28;20199;-69
2021/10/18 07:32:43;;;;;;;10.67;8.10;;;;;;;11.82;67.17;102333.38;5069367;28;20240;-68
2021/10/18 07:35:10;;;;;;;12.30;8.30;;;;;;;11.87;67.06;102337.88;5069620;28;20727;-69
2021/10/18 07:37:37;;;;;;;11.37;7.93;;;;;;;11.87;66.84;102343.00;5068147;28;20213;-68
2021/10/18 07:40:03;;;;;;;12.90;7.90;;;;;;;11.90;67.45;102345.69;5069528;28;20600;-69
2021/10/18 07:42:28;;;;;;;12.20;7.90;;;;;;;11.91;66.93;102351.69;5061346;28;20263;-69
2021/10/18 07:44:54;;;;;;;11.00;7.83;;;;;;;11.94;67.18;102357.81;5065246;28;20181;-69
2021/10/18 07:47:20;;;;;;;10.13;8.40;;;;;;;11.96;67.56;102355.31;5069805;28;20214;-69
2021/10/18 07:49:46;;;;;;;10.97;8.33;;;;;;;11.98;67.07;102356.25;5065737;28;20200;-69
2021/10/18 07:52:15;;;;;;;11.87;8.03;;;;;;;12.10;67.68;102366.97;5068285;28;20193;-69
2021/10/18 07:54:42;;;;;;;12.57;7.87;;;;;;;12.09;66.63;102365.22;5060781;28;20204;-69
2021/10/18 07:57:09;;;;;;;12.43;8.17;;;;;;;12.10;67.48;102365.28;5069547;28;20197;-69
2021/10/18 07:59:34;;;;;;;11.03;7.97;;;;;;;12.09;66.51;102366.13;5063542;28;20232;-69
2021/10/18 08:01:59;;;;;;;8.93;7.43;;;;;;;12.11;66.85;102372.19;5069781;28;20285;-69
2021/10/18 08:04:26;;;;;;;10.97;8.00;;;;;;;12.10;66.54;102367.88;5067564;28;20185;-69
2021/10/18 08:06:51;;;;;;;10.33;7.70;;;;;;;12.07;65.98;102364.31;5067735;28;20220;-69
2021/10/18 08:09:16;;;;;;;10.00;7.33;;;;;;;12.09;65.73;102366.13;5068731;28;20579;-69
2021/10/18 08:11:42;;;;;;;12.87;8.23;;;;;;;12.17;65.64;102371.53;5068242;28;20181;-69
2021/10/18 08:14:07;;;;;;;10.60;7.87;;;;;;;12.28;66.23;102365.09;5068953;28;20215;-69
2021/10/18 08:16:32;;;;;;;9.47;7.17;;;;;;;12.34;65.85;102367.88;5069195;28;20322;-69
2021/10/18 08:18:58;;;;;;;10.13;7.27;;;;;;;12.38;65.66;102362.03;5063450;28;20388;-69
2021/10/18 08:21:23;;;;;;;8.97;7.10;;;;;;;12.50;66.05;102365.06;5068848;28;20642;-69
2021/10/18 08:23:49;;;;;;;10.13;7.13;;;;;;;12.52;65.78;102371.13;5067579;28;20669;-69
2021/10/18 08:26:15;;;;;;;8.70;6.87;;;;;;;12.52;65.79;102374.56;5069183;28;20221;-69
2021/10/18 08:28:40;;;;;;;14.07;7.67;;;;;;;12.60;64.96;102377.41;5066604;28;20186;-69
2021/10/18 08:31:06;;;;;;;8.40;7.37;;;;;;;12.71;65.46;102376.97;5066364;28;20197;-69
2021/10/18 08:33:31;;;;;;;12.07;8.07;;;;;;;12.61;64.74;102374.91;5066853;28;20262;-69
2021/10/18 08:35:57;;;;;;;8.90;7.00;;;;;;;12.72;64.25;102383.00;5066783;28;20238;-69
2021/10/18 08:41:18;;;;;;;10.07;7.00;;;;;;;12.93;64.75;102377.72;5066592;28;20189;-69
2021/10/18 08:46:24;;;;;;;11.37;7.13;;;;;;;13.17;64.21;102379.44;5065868;28;20252;-70
2021/10/18 08:48:54;;;;;;;8.60;7.27;;;;;;;13.12;64.00;102383.56;5063107;28;20259;-70
2021/10/18 08:51:21;;;;;;;11.93;7.77;;;;;;;13.11;64.58;102378.41;5068360;28;20266;-70
2021/10/18 08:53:46;;;;;;;9.27;7.17;;;;;;;13.04;64.38;102385.03;5063992;28;20301;-70
2021/10/18 08:56:12;;;;;;;9.40;7.30;;;;;;;12.93;64.11;102384.63;5065462;28;20268;-69
2021/10/18 08:58:38;;;;;;;10.03;7.20;;;;;;;12.91;64.65;102386.25;5067157;28;20378;-69
2021/10/18 09:01:03;;;;;;;11.17;7.53;;;;;;;13.01;64.30;102392.63;5067528;28;20653;-69
2021/10/18 09:03:32;;;;;;;9.33;6.83;;;;;;;13.00;64.75;102390.88;5068236;28;20654;-69
2021/10/18 09:06:15;;;;;;;8.97;7.27;;;;;;;13.05;64.75;102391.03;5071137;28;20201;-69
2021/10/18 09:08:47;;;;;;;10.87;7.10;;;;;;;13.05;64.90;102397.06;5054155;28;20186;-69
2021/10/18 09:11:24;;;;;;;9.33;7.47;;;;;;;13.03;64.65;102398.69;5073030;28;20189;-69
2021/10/18 09:13:52;;;;;;;12.63;7.90;;;;;;;13.13;65.16;102394.75;5065198;28;20219;-69
2021/10/18 09:16:30;;;;;;;9.40;7.10;;;;;;;13.16;65.29;102398.28;5070158;28;20189;-69
2021/10/18 09:19:09;;;;;;;9.20;7.10;;;;;;;13.12;65.53;102400.72;5069030;28;20193;-69
2021/10/18 09:21:36;;;;;;;11.83;7.03;;;;;;;13.04;64.84;102407.28;5072365;28;20177;-69
2021/10/18 09:24:03;;;;;;;8.37;6.87;;;;;;;13.06;65.11;102403.06;5072224;28;20189;-69
2021/10/18 09:26:31;;;;;;;9.53;6.90;;;;;;;13.06;64.36;102406.50;5069699;28;20189;-69
2021/10/18 09:29:07;;;;;;;10.50;7.07;;;;;;;13.16;64.98;102406.00;5069488;28;20204;-69
2021/10/18 09:31:33;;;;;;;9.43;7.73;;;;;;;13.06;63.88;102405.63;5068986;28;20192;-69
2021/10/18 09:34:12;;;;;;;8.70;7.07;;;;;;;13.15;64.82;102404.25;5068764;28;20213;-69
2021/10/18 09:36:39;;;;;;;10.77;7.60;;;;;;;13.28;64.34;102405.53;5072304;28;20215;-69
2021/10/18 09:39:15;;;;;;;8.07;6.87;;;;;;;13.34;64.35;102401.47;5069658;28;20205;-69
2021/10/18 09:41:56;;;;;;;9.17;6.87;;;;;;;13.34;64.76;102403.16;5065218;28;20200;-69
2021/10/18 09:44:43;;;;;;;10.30;7.20;;;;;;;13.41;64.88;102411.16;5071468;28;20871;-69
2021/10/18 09:47:40;;;;;;;8.47;5.97;;;;;;;13.58;64.90;102411.72;5070682;28;20209;-69
2021/10/18 10:53:27;;;;;;;6.63;5.40;;;;;;;14.95;59.76;102383.19;5070901;28;20208;-69
2021/10/18 10:55:57;;;;;;;9.60;5.80;;;;;;;14.92;60.62;102377.97;5066264;28;20204;-69
2021/10/18 10:58:36;;;;;;;8.07;6.00;;;;;;;15.01;61.33;102376.47;5070909;28;20212;-69
2021/10/18 11:01:03;;;;;;;8.07;5.80;;;;;;;15.11;60.74;102372.44;5067579;28;20177;-69
2021/10/18 11:03:38;;;;;;;6.47;5.83;;;;;;;15.05;60.92;102380.88;5067636;28;20189;-69
2021/10/18 11:06:15;;;;;;;7.97;5.13;;;;;;;14.95;60.91;102378.00;5067710;28;20193;-69
2021/10/18 11:08:46;;;;;;;6.53;5.83;;;;;;;14.89;61.31;102371.00;5061633;28;20339;-69
2021/10/18 11:11:13;;;;;;;6.60;5.83;;;;;;;14.92;60.68;102368.50;5070775;28;20276;-69
2021/10/18 11:13:47;;;;;;;8.33;6.13;;;;;;;14.69;60.78;102361.00;5050741;28;20222;-69
2021/10/18 11:16:13;;;;;;;8.40;5.87;;;;;;;14.85;62.32;102357.97;5067131;28;20197;-69
2021/10/18 11:18:39;;;;;;;9.00;5.93;;;;;;;14.87;61.42;102364.91;5067927;28;20209;-70
2021/10/18 11:21:15;;;;;;;7.90;6.13;;;;;;;14.68;60.47;102370.44;5067701;28;20577;-69
2021/10/18 11:23:59;;;;;;;7.67;6.07;;;;;;;14.70;61.07;102365.31;5050408;28;20197;-69
2021/10/18 11:26:26;;;;;;;7.90;6.10;;;;;;;14.74;60.72;102365.44;5069711;28;20193;-69
2021/10/18 11:28:57;;;;;;;7.53;6.07;;;;;;;14.89;61.17;102362.38;5066446;28;20205;-69
2021/10/18 11:31:31;;;;;;;12.27;7.07;;;;;;;15.10;60.48;102365.53;5068191;28;20208;-69
2021/10/18 11:34:10;;;;;;;6.77;5.93;;;;;;;15.25;60.30;102369.38;5064229;28;20221;-69
2021/10/18 11:36:42;;;;;;;8.03;6.30;;;;;;;15.19;60.92;102369.19;5065424;28;20196;-69
2021/10/18 11:39:17;;;;;;;8.60;6.00;;;;;;;15.38;60.66;102355.94;5067301;28;20220;-69
2021/10/18 11:42:04;;;;;;;7.63;5.87;;;;;;;15.52;59.59;102359.72;5064084;28;20195;-69
2021/10/18 11:44:54;;;;;;;7.53;5.50;;;;;;;15.46;58.45;102363.88;5064597;28;20567;-69
2021/10/18 11:47:37;;;;;;;7.67;6.07;;;;;;;15.62;58.77;102361.72;5065526;28;20222;-69
2021/10/18 11:50:17;;;;;;;8.40;6.07;;;;;;;15.48;57.67;102362.22;5068304;28;20185;-70
2021/10/18 11:52:49;;;;;;;8.53;6.10;;;;;;;15.55;58.31;102371.84;5067326;28;20262;-70
2021/10/18 11:55:20;;;;;;;6.83;5.80;;;;;;;15.51;57.96;102362.31;5069034;28;20216;-70
2021/10/18 11:57:47;;;;;;;7.20;5.40;;;;;;;15.49;58.72;102358.78;5069769;28;20213;-70
2021/10/18 12:00:33;;;;;;;7.43;6.10;;;;;;;15.44;58.78;102365.56;5068338;28;20196;-70
2021/10/18 12:03:01;;;;;;;8.63;6.07;;;;;;;15.37;59.24;102361.94;5065981;28;20196;-70
2021/10/18 12:05:39;;;;;;;8.77;5.80;;;;;;;15.36;59.36;102360.22;5069741;28;20193;-70
2021/10/18 12:08:05;;;;;;;8.63;5.80;;;;;;;15.28;60.14;102356.53;5068485;28;20642;-70
2021/10/18 12:10:32;;;;;;;6.63;5.57;;;;;;;15.35;60.83;102345.56;5067252;28;20522;-70
2021/10/18 12:13:14;;;;;;;8.23;5.63;;;;;;;15.15;60.16;102351.91;5065480;28;20628;-70
2021/10/18 12:15:48;;;;;;;7.53;5.13;;;;;;;15.15;60.10;102348.47;5067463;28;20197;-70
2021/10/18 12:18:17;;;;;;;7.80;5.67;;;;;;;15.10;60.50;102337.16;5062884;28;20219;-71
2021/10/18 12:20:46;;;;;;;9.63;5.40;;;;;;;15.23;60.71;102328.84;5067694;28;20196;-71
2021/10/18 12:23:26;;;;;;;6.47;5.00;;;;;;;15.23;60.53;102326.28;5069486;28;20212;-71